sensor_id;sensor_type;location;lat;lon;timestamp;temperature;humidity
11772;DHT22;12556;55.748;13.194;2023-03-05T00:01:52;0.60;99.90
11772;DHT22;12556;55.748;13.194;2023-03-05T00:04:19;0.60;99.90
11772;DHT22;12556;55.748;13.194;2023-03-05T00:06:48;0.60;99.90
11772;DHT22;12556;55.748;13.194;2023-03-05T00:09:15;0.50;99.90
11772;DHT22;12556;55.748;13.194;2023-03-05T00:11:42;0.50;99.90
11772;DHT22;12556;55.748;13.194;2023-03-05T00:14:11;0.50;99.90
11772;DHT22;12556;55.748;13.194;2023-03-05T00:16:38;0.50;99.90
11772;DHT22;12556;55.748;13.194;2023-03-05T00:19:05;0.50;99.90
11772;DHT22;12556;55.748;13.194;2023-03-05T00:21:35;0.40;99.90
11772;DHT22;12556;55.748;13.194;2023-03-05T00:24:04;0.40;99.90
11772;DHT22;12556;55.748;13.194;2023-03-05T00:26:35;0.40;99.90
11772;DHT22;12556;55.748;13.194;2023-03-05T00:29:04;0.40;99.90
11772;DHT22;12556;55.748;13.194;2023-03-05T00:31:34;0.40;99.90
11772;DHT22;12556;55.748;13.194;2023-03-05T00:34:03;0.40;99.90
11772;DHT22;12556;55.748;13.194;2023-03-05T00:36:31;0.30;99.90
11772;DHT22;12556;55.748;13.194;2023-03-05T00:38:58;0.30;99.90
11772;DHT22;12556;55.748;13.194;2023-03-05T00:41:25;0.20;99.90
11772;DHT22;12556;55.748;13.194;2023-03-05T00:43:53;0.20;99.90
11772;DHT22;12556;55.748;13.194;2023-03-05T00:46:20;0.20;99.90
11772;DHT22;12556;55.748;13.194;2023-03-05T00:48:48;0.20;99.90
11772;DHT22;12556;55.748;13.194;2023-03-05T00:51:15;0.10;99.90
11772;DHT22;12556;55.748;13.194;2023-03-05T00:53:42;0.10;99.90
11772;DHT22;12556;55.748;13.194;2023-03-05T00:56:09;0.00;99.90
11772;DHT22;12556;55.748;13.194;2023-03-05T00:58:37;0.00;99.90
11772;DHT22;12556;55.748;13.194;2023-03-05T01:01:04;-0.10;99.90
11772;DHT22;12556;55.748;13.194;2023-03-05T01:03:32;-0.20;99.90
11772;DHT22;12556;55.748;13.194;2023-03-05T01:06:04;-0.20;99.90
11772;DHT22;12556;55.748;13.194;2023-03-05T01:08:32;-0.30;99.90
11772;DHT22;12556;55.748;13.194;2023-03-05T01:10:59;-0.40;99.90
11772;DHT22;12556;55.748;13.194;2023-03-05T01:13:25;-0.40;99.90
11772;DHT22;12556;55.748;13.194;2023-03-05T01:15:52;-0.40;99.90
11772;DHT22;12556;55.748;13.194;2023-03-05T01:18:20;-0.40;99.90
11772;DHT22;12556;55.748;13.194;2023-03-05T01:20:47;-0.50;99.90
11772;DHT22;12556;55.748;13.194;2023-03-05T01:23:16;-0.50;99.90
11772;DHT22;12556;55.748;13.194;2023-03-05T01:25:43;-0.50;99.90
11772;DHT22;12556;55.748;13.194;2023-03-05T01:28:10;-0.50;99.90
11772;DHT22;12556;55.748;13.194;2023-03-05T01:30:37;-0.50;99.90
11772;DHT22;12556;55.748;13.194;2023-03-05T01:33:04;-0.50;99.90
11772;DHT22;12556;55.748;13.194;2023-03-05T01:35:31;-0.50;99.90
11772;DHT22;12556;55.748;13.194;2023-03-05T01:37:58;-0.50;99.90
11772;DHT22;12556;55.748;13.194;2023-03-05T01:40:29;-0.50;99.90
11772;DHT22;12556;55.748;13.194;2023-03-05T01:42:58;-0.50;99.90
11772;DHT22;12556;55.748;13.194;2023-03-05T01:45:29;-0.50;99.90
11772;DHT22;12556;55.748;13.194;2023-03-05T01:47:57;-0.50;99.90
11772;DHT22;12556;55.748;13.194;2023-03-05T01:50:25;-0.40;99.90
11772;DHT22;12556;55.748;13.194;2023-03-05T01:52:56;-0.40;99.90
11772;DHT22;12556;55.748;13.194;2023-03-05T01:55:25;-0.40;99.90
11772;DHT22;12556;55.748;13.194;2023-03-05T01:57:56;-0.40;99.90
11772;DHT22;12556;55.748;13.194;2023-03-05T02:00:27;-0.40;99.90
11772;DHT22;12556;55.748;13.194;2023-03-05T02:02:56;-0.30;99.90
11772;DHT22;12556;55.748;13.194;2023-03-05T02:05:29;-0.30;99.90
11772;DHT22;12556;55.748;13.194;2023-03-05T02:07:56;-0.30;99.90
11772;DHT22;12556;55.748;13.194;2023-03-05T02:10:25;-0.20;99.90
11772;DHT22;12556;55.748;13.194;2023-03-05T02:12:58;-0.20;99.90
11772;DHT22;12556;55.748;13.194;2023-03-05T02:15:26;-0.20;99.90
11772;DHT22;12556;55.748;13.194;2023-03-05T02:17:53;-0.20;99.90
11772;DHT22;12556;55.748;13.194;2023-03-05T02:20:22;-0.20;99.90
11772;DHT22;12556;55.748;13.194;2023-03-05T02:22:51;-0.10;99.90
11772;DHT22;12556;55.748;13.194;2023-03-05T02:25:19;-0.10;99.90
11772;DHT22;12556;55.748;13.194;2023-03-05T02:27:52;-0.10;99.90
11772;DHT22;12556;55.748;13.194;2023-03-05T02:30:20;-0.10;99.90
11772;DHT22;12556;55.748;13.194;2023-03-05T02:32:47;-0.10;99.90
11772;DHT22;12556;55.748;13.194;2023-03-05T02:35:14;-0.10;99.90
11772;DHT22;12556;55.748;13.194;2023-03-05T02:37:41;-0.10;99.90
11772;DHT22;12556;55.748;13.194;2023-03-05T02:40:11;-0.10;99.90
11772;DHT22;12556;55.748;13.194;2023-03-05T02:42:38;-0.20;99.90
11772;DHT22;12556;55.748;13.194;2023-03-05T02:45:07;-0.30;99.90
11772;DHT22;12556;55.748;13.194;2023-03-05T02:47:35;-0.40;99.90
11772;DHT22;12556;55.748;13.194;2023-03-05T02:50:02;-0.50;99.90
11772;DHT22;12556;55.748;13.194;2023-03-05T02:52:30;-0.60;99.90
11772;DHT22;12556;55.748;13.194;2023-03-05T02:54:58;-0.60;99.90
11772;DHT22;12556;55.748;13.194;2023-03-05T02:57:26;-0.60;99.90
11772;DHT22;12556;55.748;13.194;2023-03-05T02:59:53;-0.60;99.90
11772;DHT22;12556;55.748;13.194;2023-03-05T03:02:20;-0.60;99.90
11772;DHT22;12556;55.748;13.194;2023-03-05T03:04:47;-0.50;99.90
11772;DHT22;12556;55.748;13.194;2023-03-05T03:07:15;-0.50;99.90
11772;DHT22;12556;55.748;13.194;2023-03-05T03:09:41;-0.40;99.90
11772;DHT22;12556;55.748;13.194;2023-03-05T03:12:10;-0.40;99.90
11772;DHT22;12556;55.748;13.194;2023-03-05T03:14:40;-0.30;99.90
11772;DHT22;12556;55.748;13.194;2023-03-05T03:17:09;-0.30;99.90
11772;DHT22;12556;55.748;13.194;2023-03-05T03:19:37;-0.30;99.90
11772;DHT22;12556;55.748;13.194;2023-03-05T03:22:06;-0.30;99.90
11772;DHT22;12556;55.748;13.194;2023-03-05T03:24:34;-0.30;99.90
11772;DHT22;12556;55.748;13.194;2023-03-05T03:27:02;-0.30;99.90
11772;DHT22;12556;55.748;13.194;2023-03-05T03:29:30;-0.30;99.90
11772;DHT22;12556;55.748;13.194;2023-03-05T03:31:58;-0.30;99.90
11772;DHT22;12556;55.748;13.194;2023-03-05T03:34:26;-0.30;99.90
11772;DHT22;12556;55.748;13.194;2023-03-05T03:36:53;-0.30;99.90
11772;DHT22;12556;55.748;13.194;2023-03-05T03:39:20;-0.30;99.90
11772;DHT22;12556;55.748;13.194;2023-03-05T03:41:51;-0.30;99.90
11772;DHT22;12556;55.748;13.194;2023-03-05T03:44:20;-0.30;99.90
11772;DHT22;12556;55.748;13.194;2023-03-05T03:46:47;-0.30;99.90
11772;DHT22;12556;55.748;13.194;2023-03-05T03:49:17;-0.30;99.90
11772;DHT22;12556;55.748;13.194;2023-03-05T03:51:45;-0.30;99.90
11772;DHT22;12556;55.748;13.194;2023-03-05T03:54:12;-0.40;99.90
11772;DHT22;12556;55.748;13.194;2023-03-05T03:56:40;-0.30;99.90
11772;DHT22;12556;55.748;13.194;2023-03-05T03:59:07;-0.40;99.90
11772;DHT22;12556;55.748;13.194;2023-03-05T04:01:34;-0.40;99.90
11772;DHT22;12556;55.748;13.194;2023-03-05T04:04:01;-0.40;99.90
11772;DHT22;12556;55.748;13.194;2023-03-05T04:06:30;-0.40;99.90
11772;DHT22;12556;55.748;13.194;2023-03-05T04:08:57;-0.40;99.90
11772;DHT22;12556;55.748;13.194;2023-03-05T04:11:25;-0.40;99.90
11772;DHT22;12556;55.748;13.194;2023-03-05T04:13:52;0.20;99.90
11772;DHT22;12556;55.748;13.194;2023-03-05T04:16:18;-0.50;99.90
11772;DHT22;12556;55.748;13.194;2023-03-05T04:18:45;-0.50;99.90
11772;DHT22;12556;55.748;13.194;2023-03-05T04:21:12;-0.50;99.90
11772;DHT22;12556;55.748;13.194;2023-03-05T04:23:41;-0.50;99.90
11772;DHT22;12556;55.748;13.194;2023-03-05T04:26:08;-0.50;99.90
11772;DHT22;12556;55.748;13.194;2023-03-05T04:28:35;-0.60;99.90
11772;DHT22;12556;55.748;13.194;2023-03-05T04:31:03;-0.60;99.90
11772;DHT22;12556;55.748;13.194;2023-03-05T04:33:30;-0.60;99.90
11772;DHT22;12556;55.748;13.194;2023-03-05T04:35:58;-0.60;99.90
11772;DHT22;12556;55.748;13.194;2023-03-05T04:38:25;-0.60;99.90
11772;DHT22;12556;55.748;13.194;2023-03-05T04:40:53;-0.70;99.90
11772;DHT22;12556;55.748;13.194;2023-03-05T04:43:20;-0.70;99.90
11772;DHT22;12556;55.748;13.194;2023-03-05T04:45:47;-0.80;99.90
11772;DHT22;12556;55.748;13.194;2023-03-05T04:48:14;-0.90;99.90
11772;DHT22;12556;55.748;13.194;2023-03-05T04:50:41;-0.90;99.90
11772;DHT22;12556;55.748;13.194;2023-03-05T04:53:08;-0.90;99.90
11772;DHT22;12556;55.748;13.194;2023-03-05T04:55:35;-1.00;99.90
11772;DHT22;12556;55.748;13.194;2023-03-05T04:58:03;-1.10;99.90
11772;DHT22;12556;55.748;13.194;2023-03-05T05:00:30;-1.10;99.90
11772;DHT22;12556;55.748;13.194;2023-03-05T05:02:57;-1.20;99.90
11772;DHT22;12556;55.748;13.194;2023-03-05T05:05:26;-1.30;99.90
11772;DHT22;12556;55.748;13.194;2023-03-05T05:07:53;-1.50;99.90
11772;DHT22;12556;55.748;13.194;2023-03-05T05:10:21;-1.40;99.90
11772;DHT22;12556;55.748;13.194;2023-03-05T05:12:48;-1.50;99.90
11772;DHT22;12556;55.748;13.194;2023-03-05T05:15:16;-1.50;99.90
11772;DHT22;12556;55.748;13.194;2023-03-05T05:17:43;-1.60;99.90
11772;DHT22;12556;55.748;13.194;2023-03-05T05:20:12;-1.60;99.90
11772;DHT22;12556;55.748;13.194;2023-03-05T05:22:39;-1.70;99.90
11772;DHT22;12556;55.748;13.194;2023-03-05T05:25:08;-1.90;99.90
11772;DHT22;12556;55.748;13.194;2023-03-05T05:27:36;-1.80;99.90
11772;DHT22;12556;55.748;13.194;2023-03-05T05:30:04;-1.90;99.90
11772;DHT22;12556;55.748;13.194;2023-03-05T05:32:33;-1.90;99.90
11772;DHT22;12556;55.748;13.194;2023-03-05T05:35:01;-2.00;99.90
11772;DHT22;12556;55.748;13.194;2023-03-05T05:37:28;-2.00;99.90
11772;DHT22;12556;55.748;13.194;2023-03-05T05:39:55;-2.10;99.90
11772;DHT22;12556;55.748;13.194;2023-03-05T05:42:23;-2.20;99.90
11772;DHT22;12556;55.748;13.194;2023-03-05T05:44:51;-2.20;99.90
11772;DHT22;12556;55.748;13.194;2023-03-05T05:47:19;-2.20;99.90
11772;DHT22;12556;55.748;13.194;2023-03-05T05:49:48;-2.30;99.90
11772;DHT22;12556;55.748;13.194;2023-03-05T05:52:15;-2.30;99.90
11772;DHT22;12556;55.748;13.194;2023-03-05T05:54:42;-2.40;99.90
11772;DHT22;12556;55.748;13.194;2023-03-05T05:57:09;-2.50;99.90
11772;DHT22;12556;55.748;13.194;2023-03-05T05:59:37;-2.40;99.90
11772;DHT22;12556;55.748;13.194;2023-03-05T06:02:04;-2.40;99.90
11772;DHT22;12556;55.748;13.194;2023-03-05T06:04:32;-2.50;99.90
11772;DHT22;12556;55.748;13.194;2023-03-05T06:07:00;-2.60;99.90
11772;DHT22;12556;55.748;13.194;2023-03-05T06:09:28;-2.50;99.90
11772;DHT22;12556;55.748;13.194;2023-03-05T06:11:55;-2.60;99.90
11772;DHT22;12556;55.748;13.194;2023-03-05T06:14:22;-2.60;99.90
11772;DHT22;12556;55.748;13.194;2023-03-05T06:16:49;-2.70;99.90
11772;DHT22;12556;55.748;13.194;2023-03-05T06:19:16;-2.70;99.90
11772;DHT22;12556;55.748;13.194;2023-03-05T06:21:42;-2.70;99.90
11772;DHT22;12556;55.748;13.194;2023-03-05T06:24:11;-2.70;99.90
11772;DHT22;12556;55.748;13.194;2023-03-05T06:26:38;-2.70;99.90
11772;DHT22;12556;55.748;13.194;2023-03-05T06:29:05;-2.70;99.90
11772;DHT22;12556;55.748;13.194;2023-03-05T06:31:32;-2.70;99.90
11772;DHT22;12556;55.748;13.194;2023-03-05T06:33:59;-2.70;99.90
11772;DHT22;12556;55.748;13.194;2023-03-05T06:36:27;-2.70;99.90
11772;DHT22;12556;55.748;13.194;2023-03-05T06:38:55;-2.70;99.90
11772;DHT22;12556;55.748;13.194;2023-03-05T06:41:25;-2.70;99.90
11772;DHT22;12556;55.748;13.194;2023-03-05T06:43:53;-2.70;99.90
11772;DHT22;12556;55.748;13.194;2023-03-05T06:46:22;-2.70;99.90
11772;DHT22;12556;55.748;13.194;2023-03-05T06:48:50;-2.60;99.90
11772;DHT22;12556;55.748;13.194;2023-03-05T06:51:19;-2.60;99.90
11772;DHT22;12556;55.748;13.194;2023-03-05T06:53:48;-2.50;99.90
11772;DHT22;12556;55.748;13.194;2023-03-05T06:56:15;-2.50;99.90
11772;DHT22;12556;55.748;13.194;2023-03-05T06:58:45;-2.40;99.90
11772;DHT22;12556;55.748;13.194;2023-03-05T07:01:13;-2.30;99.90
11772;DHT22;12556;55.748;13.194;2023-03-05T07:03:41;-2.20;99.90
11772;DHT22;12556;55.748;13.194;2023-03-05T07:06:10;-2.20;99.90
11772;DHT22;12556;55.748;13.194;2023-03-05T07:08:38;-2.10;99.90
11772;DHT22;12556;55.748;13.194;2023-03-05T07:11:09;-2.00;99.90
11772;DHT22;12556;55.748;13.194;2023-03-05T07:13:36;-1.90;99.90
11772;DHT22;12556;55.748;13.194;2023-03-05T07:16:06;-1.90;99.90
11772;DHT22;12556;55.748;13.194;2023-03-05T07:18:33;-1.80;99.90
11772;DHT22;12556;55.748;13.194;2023-03-05T07:21:02;-1.70;99.90
11772;DHT22;12556;55.748;13.194;2023-03-05T07:23:29;-1.60;99.90
11772;DHT22;12556;55.748;13.194;2023-03-05T07:25:56;-1.50;99.90
11772;DHT22;12556;55.748;13.194;2023-03-05T07:28:23;-1.40;99.90
11772;DHT22;12556;55.748;13.194;2023-03-05T07:30:55;-1.30;99.90
11772;DHT22;12556;55.748;13.194;2023-03-05T07:33:25;-1.20;99.90
11772;DHT22;12556;55.748;13.194;2023-03-05T07:35:52;-1.10;99.90
11772;DHT22;12556;55.748;13.194;2023-03-05T07:38:19;-1.00;99.90
11772;DHT22;12556;55.748;13.194;2023-03-05T07:40:46;-0.80;99.90
11772;DHT22;12556;55.748;13.194;2023-03-05T07:43:13;-0.70;99.90
11772;DHT22;12556;55.748;13.194;2023-03-05T07:45:41;-0.60;99.90
11772;DHT22;12556;55.748;13.194;2023-03-05T07:48:12;-0.40;99.90
11772;DHT22;12556;55.748;13.194;2023-03-05T07:50:41;-0.30;99.90
11772;DHT22;12556;55.748;13.194;2023-03-05T07:53:09;-0.10;99.90
11772;DHT22;12556;55.748;13.194;2023-03-05T07:55:41;0.00;99.90
11772;DHT22;12556;55.748;13.194;2023-03-05T07:58:09;0.00;99.90
11772;DHT22;12556;55.748;13.194;2023-03-05T08:00:36;0.90;99.90
11772;DHT22;12556;55.748;13.194;2023-03-05T08:03:03;0.30;99.90
11772;DHT22;12556;55.748;13.194;2023-03-05T08:05:30;0.40;99.90
11772;DHT22;12556;55.748;13.194;2023-03-05T08:07:59;0.70;99.90
11772;DHT22;12556;55.748;13.194;2023-03-05T08:10:26;0.60;99.90
11772;DHT22;12556;55.748;13.194;2023-03-05T08:12:53;0.70;99.90
11772;DHT22;12556;55.748;13.194;2023-03-05T08:15:20;0.80;99.90
11772;DHT22;12556;55.748;13.194;2023-03-05T08:17:47;0.90;99.90
11772;DHT22;12556;55.748;13.194;2023-03-05T08:20:14;1.10;99.90
11772;DHT22;12556;55.748;13.194;2023-03-05T08:22:40;1.10;99.90
11772;DHT22;12556;55.748;13.194;2023-03-05T08:25:10;1.20;99.90
11772;DHT22;12556;55.748;13.194;2023-03-05T08:27:38;1.30;99.90
11772;DHT22;12556;55.748;13.194;2023-03-05T08:30:07;1.40;99.90
11772;DHT22;12556;55.748;13.194;2023-03-05T08:32:34;1.50;99.90
11772;DHT22;12556;55.748;13.194;2023-03-05T08:35:01;1.70;99.90
11772;DHT22;12556;55.748;13.194;2023-03-05T08:37:29;1.80;99.90
11772;DHT22;12556;55.748;13.194;2023-03-05T08:39:56;1.90;99.90
11772;DHT22;12556;55.748;13.194;2023-03-05T08:42:24;2.00;99.90
11772;DHT22;12556;55.748;13.194;2023-03-05T08:44:51;2.10;99.90
11772;DHT22;12556;55.748;13.194;2023-03-05T08:47:18;2.20;99.90
11772;DHT22;12556;55.748;13.194;2023-03-05T08:49:45;2.30;99.90
11772;DHT22;12556;55.748;13.194;2023-03-05T08:52:12;2.40;99.90
11772;DHT22;12556;55.748;13.194;2023-03-05T08:54:39;2.40;99.90
11772;DHT22;12556;55.748;13.194;2023-03-05T08:57:06;2.50;99.90
11772;DHT22;12556;55.748;13.194;2023-03-05T08:59:34;2.60;99.90
11772;DHT22;12556;55.748;13.194;2023-03-05T09:02:02;2.80;99.90
11772;DHT22;12556;55.748;13.194;2023-03-05T09:04:29;2.80;99.90
11772;DHT22;12556;55.748;13.194;2023-03-05T09:06:56;3.00;99.90
11772;DHT22;12556;55.748;13.194;2023-03-05T09:09:23;3.10;99.90
11772;DHT22;12556;55.748;13.194;2023-03-05T09:11:50;3.10;99.90
11772;DHT22;12556;55.748;13.194;2023-03-05T09:14:17;3.10;99.90
11772;DHT22;12556;55.748;13.194;2023-03-05T09:16:45;3.10;99.90
11772;DHT22;12556;55.748;13.194;2023-03-05T09:19:12;3.10;99.90
11772;DHT22;12556;55.748;13.194;2023-03-05T09:21:40;3.00;99.90
11772;DHT22;12556;55.748;13.194;2023-03-05T09:24:07;3.00;99.90
11772;DHT22;12556;55.748;13.194;2023-03-05T09:26:36;3.00;99.90
11772;DHT22;12556;55.748;13.194;2023-03-05T09:29:03;3.10;99.90
11772;DHT22;12556;55.748;13.194;2023-03-05T09:31:32;3.20;99.90
11772;DHT22;12556;55.748;13.194;2023-03-05T09:34:00;3.30;99.90
11772;DHT22;12556;55.748;13.194;2023-03-05T09:36:28;3.40;99.90
11772;DHT22;12556;55.748;13.194;2023-03-05T09:38:56;3.60;99.90
11772;DHT22;12556;55.748;13.194;2023-03-05T09:41:29;3.80;99.90
11772;DHT22;12556;55.748;13.194;2023-03-05T09:44:09;3.90;99.90
11772;DHT22;12556;55.748;13.194;2023-03-05T09:46:50;4.00;99.90
11772;DHT22;12556;55.748;13.194;2023-03-05T09:49:23;4.10;99.90
11772;DHT22;12556;55.748;13.194;2023-03-05T09:51:58;4.20;99.90
11772;DHT22;12556;55.748;13.194;2023-03-05T09:54:31;4.40;99.90
11772;DHT22;12556;55.748;13.194;2023-03-05T09:57:02;4.40;99.90
11772;DHT22;12556;55.748;13.194;2023-03-05T09:59:34;4.50;99.90
11772;DHT22;12556;55.748;13.194;2023-03-05T10:02:16;4.60;99.90
11772;DHT22;12556;55.748;13.194;2023-03-05T10:04:48;4.70;99.90
11772;DHT22;12556;55.748;13.194;2023-03-05T10:07:21;4.80;99.90
11772;DHT22;12556;55.748;13.194;2023-03-05T10:09:54;4.90;99.90
11772;DHT22;12556;55.748;13.194;2023-03-05T10:12:26;4.90;99.90
11772;DHT22;12556;55.748;13.194;2023-03-05T10:14:58;5.00;99.90
11772;DHT22;12556;55.748;13.194;2023-03-05T10:17:52;5.00;99.90
11772;DHT22;12556;55.748;13.194;2023-03-05T10:20:47;5.20;99.90
11772;DHT22;12556;55.748;13.194;2023-03-05T10:26:44;5.50;99.90
11772;DHT22;12556;55.748;13.194;2023-03-05T10:29:21;5.60;99.90
11772;DHT22;12556;55.748;13.194;2023-03-05T10:32:00;5.60;99.90
11772;DHT22;12556;55.748;13.194;2023-03-05T10:37:47;5.40;99.90
11772;DHT22;12556;55.748;13.194;2023-03-05T10:40:24;5.40;99.90
11772;DHT22;12556;55.748;13.194;2023-03-05T10:43:00;5.60;99.90
11772;DHT22;12556;55.748;13.194;2023-03-05T10:45:33;5.80;99.90
11772;DHT22;12556;55.748;13.194;2023-03-05T10:48:05;5.70;99.90
11772;DHT22;12556;55.748;13.194;2023-03-05T10:50:37;5.60;99.90
11772;DHT22;12556;55.748;13.194;2023-03-05T10:53:16;5.70;99.90
11772;DHT22;12556;55.748;13.194;2023-03-05T10:55:45;5.90;99.90
11772;DHT22;12556;55.748;13.194;2023-03-05T10:58:13;6.10;99.90
11772;DHT22;12556;55.748;13.194;2023-03-05T11:00:57;6.20;99.70
11772;DHT22;12556;55.748;13.194;2023-03-05T11:03:24;6.20;99.60
11772;DHT22;12556;55.748;13.194;2023-03-05T11:05:58;6.20;99.70
11772;DHT22;12556;55.748;13.194;2023-03-05T11:08:30;6.30;99.40
11772;DHT22;12556;55.748;13.194;2023-03-05T11:11:12;6.40;99.20
11772;DHT22;12556;55.748;13.194;2023-03-05T11:13:49;6.60;99.00
11772;DHT22;12556;55.748;13.194;2023-03-05T11:16:18;6.80;98.90
11772;DHT22;12556;55.748;13.194;2023-03-05T11:18:45;7.00;98.50
11772;DHT22;12556;55.748;13.194;2023-03-05T11:21:20;6.90;98.10
11772;DHT22;12556;55.748;13.194;2023-03-05T11:24:05;6.80;98.00
11772;DHT22;12556;55.748;13.194;2023-03-05T11:26:45;6.80;97.90
11772;DHT22;12556;55.748;13.194;2023-03-05T11:29:18;6.70;97.70
11772;DHT22;12556;55.748;13.194;2023-03-05T11:31:45;6.60;97.40
11772;DHT22;12556;55.748;13.194;2023-03-05T11:34:29;6.60;97.30
11772;DHT22;12556;55.748;13.194;2023-03-05T11:37:02;6.70;97.40
11772;DHT22;12556;55.748;13.194;2023-03-05T11:39:33;6.70;97.20
11772;DHT22;12556;55.748;13.194;2023-03-05T11:42:04;6.70;97.40
11772;DHT22;12556;55.748;13.194;2023-03-05T11:44:34;6.80;96.90
11772;DHT22;12556;55.748;13.194;2023-03-05T11:47:15;6.80;96.70
11772;DHT22;12556;55.748;13.194;2023-03-05T11:49:45;6.80;96.90
11772;DHT22;12556;55.748;13.194;2023-03-05T11:52:17;6.80;96.50
11772;DHT22;12556;55.748;13.194;2023-03-05T11:54:55;6.90;96.80
11772;DHT22;12556;55.748;13.194;2023-03-05T11:57:25;6.50;96.40
11772;DHT22;12556;55.748;13.194;2023-03-05T11:59:54;6.30;96.40
11772;DHT22;12556;55.748;13.194;2023-03-05T12:02:25;6.10;96.70
11772;DHT22;12556;55.748;13.194;2023-03-05T12:04:53;6.20;96.80
11772;DHT22;12556;55.748;13.194;2023-03-05T12:07:29;6.40;96.70
11772;DHT22;12556;55.748;13.194;2023-03-05T12:09:59;6.30;96.10
11772;DHT22;12556;55.748;13.194;2023-03-05T12:12:38;6.60;96.40
11772;DHT22;12556;55.748;13.194;2023-03-05T12:15:44;6.80;96.10
11772;DHT22;12556;55.748;13.194;2023-03-05T12:18:23;7.00;96.30
11772;DHT22;12556;55.748;13.194;2023-03-05T12:20:59;7.20;95.70
11772;DHT22;12556;55.748;13.194;2023-03-05T12:23:28;7.40;95.30
11772;DHT22;12556;55.748;13.194;2023-03-05T12:26:10;7.30;94.90
11772;DHT22;12556;55.748;13.194;2023-03-05T12:28:56;7.30;94.70
11772;DHT22;12556;55.748;13.194;2023-03-05T12:31:37;7.30;94.50
11772;DHT22;12556;55.748;13.194;2023-03-05T12:34:35;7.20;94.60
11772;DHT22;12556;55.748;13.194;2023-03-05T12:37:02;7.10;94.40
11772;DHT22;12556;55.748;13.194;2023-03-05T12:39:56;7.00;94.50
11772;DHT22;12556;55.748;13.194;2023-03-05T12:42:47;6.70;94.10
11772;DHT22;12556;55.748;13.194;2023-03-05T12:45:30;6.30;94.20
11772;DHT22;12556;55.748;13.194;2023-03-05T12:51:02;5.90;94.60
11772;DHT22;12556;55.748;13.194;2023-03-05T12:53:29;5.80;94.90
11772;DHT22;12556;55.748;13.194;2023-03-05T12:56:00;6.40;95.10
11772;DHT22;12556;55.748;13.194;2023-03-05T12:58:37;5.90;94.90
11772;DHT22;12556;55.748;13.194;2023-03-05T13:01:15;5.80;94.80
11772;DHT22;12556;55.748;13.194;2023-03-05T13:03:50;5.70;94.90
11772;DHT22;12556;55.748;13.194;2023-03-05T13:06:27;5.60;95.20
11772;DHT22;12556;55.748;13.194;2023-03-05T13:08:58;5.60;95.10
11772;DHT22;12556;55.748;13.194;2023-03-05T13:11:27;5.50;94.90
11772;DHT22;12556;55.748;13.194;2023-03-05T13:13:57;5.20;94.70
11772;DHT22;12556;55.748;13.194;2023-03-05T13:16:26;5.00;94.90
11772;DHT22;12556;55.748;13.194;2023-03-05T13:18:56;5.00;95.10
11772;DHT22;12556;55.748;13.194;2023-03-05T13:21:26;5.30;95.40
11772;DHT22;12556;55.748;13.194;2023-03-05T13:23:56;5.60;95.20
11772;DHT22;12556;55.748;13.194;2023-03-05T13:26:25;5.60;94.90
11772;DHT22;12556;55.748;13.194;2023-03-05T13:29:08;5.70;94.80
11772;DHT22;12556;55.748;13.194;2023-03-05T13:31:40;5.50;94.60
11772;DHT22;12556;55.748;13.194;2023-03-05T13:34:13;5.40;94.70
11772;DHT22;12556;55.748;13.194;2023-03-05T13:36:45;5.30;94.80
11772;DHT22;12556;55.748;13.194;2023-03-05T13:39:25;5.20;95.10
11772;DHT22;12556;55.748;13.194;2023-03-05T13:42:01;5.30;95.30
11772;DHT22;12556;55.748;13.194;2023-03-05T13:44:31;5.30;95.20
11772;DHT22;12556;55.748;13.194;2023-03-05T13:47:11;5.20;95.40
11772;DHT22;12556;55.748;13.194;2023-03-05T13:49:40;5.50;95.50
11772;DHT22;12556;55.748;13.194;2023-03-05T13:52:09;5.40;95.50
11772;DHT22;12556;55.748;13.194;2023-03-05T13:54:36;5.50;95.50
11772;DHT22;12556;55.748;13.194;2023-03-05T13:57:05;5.50;95.20
11772;DHT22;12556;55.748;13.194;2023-03-05T13:59:35;5.30;95.00
11772;DHT22;12556;55.748;13.194;2023-03-05T14:02:13;5.30;95.00
11772;DHT22;12556;55.748;13.194;2023-03-05T14:04:43;5.10;95.10
11772;DHT22;12556;55.748;13.194;2023-03-05T14:07:25;5.10;95.10
11772;DHT22;12556;55.748;13.194;2023-03-05T14:09:53;4.90;95.00
11772;DHT22;12556;55.748;13.194;2023-03-05T14:12:24;4.90;95.10
11772;DHT22;12556;55.748;13.194;2023-03-05T14:14:54;4.80;95.00
11772;DHT22;12556;55.748;13.194;2023-03-05T14:17:27;4.70;95.10
11772;DHT22;12556;55.748;13.194;2023-03-05T14:20:16;4.60;95.20
11772;DHT22;12556;55.748;13.194;2023-03-05T14:22:46;4.50;95.10
11772;DHT22;12556;55.748;13.194;2023-03-05T14:25:29;4.50;95.60
11772;DHT22;12556;55.748;13.194;2023-03-05T14:27:59;4.50;95.30
11772;DHT22;12556;55.748;13.194;2023-03-05T14:30:28;4.50;95.40
11772;DHT22;12556;55.748;13.194;2023-03-05T14:32:57;4.30;95.20
11772;DHT22;12556;55.748;13.194;2023-03-05T14:35:27;4.20;95.20
11772;DHT22;12556;55.748;13.194;2023-03-05T14:37:56;4.10;95.20
11772;DHT22;12556;55.748;13.194;2023-03-05T14:40:27;4.00;95.30
11772;DHT22;12556;55.748;13.194;2023-03-05T14:42:55;3.90;95.40
11772;DHT22;12556;55.748;13.194;2023-03-05T14:45:24;4.10;95.60
11772;DHT22;12556;55.748;13.194;2023-03-05T14:47:54;4.00;95.60
11772;DHT22;12556;55.748;13.194;2023-03-05T14:50:23;3.80;95.50
11772;DHT22;12556;55.748;13.194;2023-03-05T14:52:52;3.70;95.60
11772;DHT22;12556;55.748;13.194;2023-03-05T14:55:21;3.60;95.60
11772;DHT22;12556;55.748;13.194;2023-03-05T14:57:49;3.60;95.60
11772;DHT22;12556;55.748;13.194;2023-03-05T15:00:19;3.50;95.60
11772;DHT22;12556;55.748;13.194;2023-03-05T15:02:46;3.40;96.00
11772;DHT22;12556;55.748;13.194;2023-03-05T15:05:15;3.30;95.70
11772;DHT22;12556;55.748;13.194;2023-03-05T15:07:42;3.20;95.70
11772;DHT22;12556;55.748;13.194;2023-03-05T15:10:12;3.10;95.80
11772;DHT22;12556;55.748;13.194;2023-03-05T15:12:40;3.00;95.80
11772;DHT22;12556;55.748;13.194;2023-03-05T15:15:09;2.90;95.90
11772;DHT22;12556;55.748;13.194;2023-03-05T15:17:39;2.80;96.00
11772;DHT22;12556;55.748;13.194;2023-03-05T15:20:13;2.90;96.20
11772;DHT22;12556;55.748;13.194;2023-03-05T15:22:41;2.90;96.20
11772;DHT22;12556;55.748;13.194;2023-03-05T15:25:09;3.00;96.40
11772;DHT22;12556;55.748;13.194;2023-03-05T15:27:36;2.90;96.60
11772;DHT22;12556;55.748;13.194;2023-03-05T15:30:05;3.00;96.40
11772;DHT22;12556;55.748;13.194;2023-03-05T15:32:32;3.00;96.40
11772;DHT22;12556;55.748;13.194;2023-03-05T15:34:59;2.90;96.40
11772;DHT22;12556;55.748;13.194;2023-03-05T15:37:26;2.80;96.40
11772;DHT22;12556;55.748;13.194;2023-03-05T15:39:55;2.80;96.50
11772;DHT22;12556;55.748;13.194;2023-03-05T15:42:22;2.80;96.50
11772;DHT22;12556;55.748;13.194;2023-03-05T15:44:49;2.70;96.50
11772;DHT22;12556;55.748;13.194;2023-03-05T15:47:15;2.60;96.60
11772;DHT22;12556;55.748;13.194;2023-03-05T15:49:42;2.60;96.60
11772;DHT22;12556;55.748;13.194;2023-03-05T15:52:10;2.90;96.70